ZBM weather

Bromont (Roland Desourdy) Airport
Bromont, Quebec, Canada

Public forecast

Using degrees Celsius for public forecast. Weather courtesy of forecast.io.

Closest aviation weather report (METAR) to Bromont (Roland Desourdy) Airport

Closest report is Franklin County State Airport, 25.9 nm (48.0 km) SW. Retrieved 2019/12/06 12:36 UTC (14 minutes ago):

KFSO 061236Z AUTO 00000KT 10SM SCT025 BKN035 OVC042 M03/M07 A3001 RMK AO2 T10271073

Closest aviation forecast (TAF) to Bromont (Roland Desourdy) Airport

Closest forecast is MontrĂ©al / Saint-Hubert Airport, 31.6 nm (58.5 km) WNW. Retrieved 2019/12/06 12:42 UTC (8 minutes ago):

TAF TAF CYHU 061138Z 0612/0712 27005KT P6SM -SN OVC090 TEMPO 0612/0615 6SM -SN BKN020 OVC090 FM061500 25008KT 6SM -SN BKN020 OVC030 TEMPO 0615/0623 P6SM NSW SCT020 OVC030 FM062300 28007KT P6SM BKN030 BKN100 RMK FCST BASED ON AUTO OBS NXT FCST BY 061800Z